createdAt,value
2018-07-01T00:01:42.179Z,18.57
2018-07-01T00:04:08.141Z,18.70
2018-07-01T00:06:34.116Z,18.61
2018-07-01T00:09:00.092Z,18.73
2018-07-01T00:11:26.030Z,18.47
2018-07-01T00:13:52.019Z,18.44
2018-07-01T00:16:17.964Z,18.40
2018-07-01T00:18:43.922Z,18.44
2018-07-01T00:21:09.877Z,18.59
2018-07-01T00:23:35.846Z,18.57
2018-07-01T00:26:01.820Z,18.49
2018-07-01T00:28:27.781Z,18.56
2018-07-01T00:30:53.758Z,18.49
2018-07-01T00:33:19.694Z,18.55
2018-07-01T00:35:45.642Z,18.62
2018-07-01T00:38:11.595Z,18.53
2018-07-01T00:40:37.551Z,18.60
2018-07-01T00:43:03.483Z,18.64
2018-07-01T00:45:29.416Z,18.63
2018-07-01T00:47:55.350Z,18.63
2018-07-01T00:50:21.301Z,18.44
2018-07-01T00:52:47.250Z,18.32
2018-07-01T00:55:13.202Z,18.34
2018-07-01T00:57:39.181Z,18.47
2018-07-01T01:00:05.139Z,18.48
2018-07-01T01:02:31.148Z,18.20
2018-07-01T01:04:57.092Z,18.16
2018-07-01T01:07:23.017Z,18.17
2018-07-01T01:09:48.974Z,18.06
2018-07-01T01:12:14.934Z,18.00
2018-07-01T01:14:40.880Z,18.19
2018-07-01T01:17:06.885Z,18.30
2018-07-01T01:19:32.843Z,18.23
2018-07-01T01:21:58.814Z,17.84
2018-07-01T01:24:24.776Z,17.64
2018-07-01T01:26:50.721Z,17.79
2018-07-01T01:29:16.693Z,17.80
2018-07-01T01:31:42.682Z,17.92
2018-07-01T01:34:08.666Z,17.85
2018-07-01T01:36:34.621Z,17.86
2018-07-01T01:39:00.561Z,17.82
2018-07-01T01:41:26.564Z,17.81
2018-07-01T01:43:52.506Z,17.88
2018-07-01T01:46:18.440Z,17.79
2018-07-01T01:48:44.380Z,17.61
2018-07-01T01:51:10.337Z,17.73
2018-07-01T01:53:36.273Z,17.83
2018-07-01T01:56:02.199Z,17.73
2018-07-01T01:58:28.141Z,17.59
2018-07-01T02:00:54.090Z,17.64
2018-07-01T02:03:20.048Z,17.84
2018-07-01T02:05:46.047Z,17.76
2018-07-01T02:08:11.993Z,17.89
2018-07-01T02:10:37.928Z,17.58
2018-07-01T02:13:03.860Z,17.47
2018-07-01T02:15:29.814Z,17.66
2018-07-01T02:17:55.764Z,17.54
2018-07-01T02:20:21.721Z,17.55
2018-07-01T02:22:47.672Z,17.52
2018-07-01T02:25:13.658Z,17.32
2018-07-01T02:27:39.612Z,17.22
2018-07-01T02:30:05.564Z,17.24
2018-07-01T02:32:31.503Z,17.14
2018-07-01T02:34:57.455Z,17.05
2018-07-01T02:37:23.405Z,16.95
2018-07-01T02:39:49.339Z,17.10
2018-07-01T02:42:15.328Z,17.24
2018-07-01T02:44:41.288Z,17.31
2018-07-01T02:47:07.244Z,17.03
2018-07-01T02:49:33.195Z,16.93
2018-07-01T02:51:59.159Z,17.16
2018-07-01T02:54:25.117Z,17.00
2018-07-01T02:56:51.116Z,17.03
2018-07-01T02:59:17.051Z,17.10
2018-07-01T03:01:43.022Z,17.01
2018-07-01T03:04:08.981Z,16.88
2018-07-01T03:06:34.956Z,16.62
2018-07-01T03:09:00.900Z,16.66
2018-07-01T03:11:26.920Z,16.71
2018-07-01T03:13:52.866Z,16.67
2018-07-01T03:16:18.833Z,16.51
2018-07-01T03:18:44.773Z,16.87
2018-07-01T03:21:10.697Z,16.92
2018-07-01T03:23:36.642Z,16.69
2018-07-01T03:26:02.592Z,16.71
2018-07-01T03:28:28.540Z,16.69
2018-07-01T03:30:54.491Z,16.11
2018-07-01T03:33:20.437Z,16.25
2018-07-01T03:35:46.388Z,16.53
2018-07-01T03:38:12.352Z,16.41
2018-07-01T03:40:38.308Z,16.46
2018-07-01T03:43:04.323Z,16.63
2018-07-01T03:45:30.319Z,16.69
2018-07-01T03:47:56.268Z,16.63
2018-07-01T03:50:22.293Z,16.62
2018-07-01T03:52:48.296Z,16.64
2018-07-01T03:55:14.278Z,16.54
2018-07-01T03:57:40.281Z,16.37
2018-07-01T04:00:06.247Z,16.31
2018-07-01T04:02:32.196Z,16.39
2018-07-01T04:04:58.937Z,16.41
2018-07-01T04:07:24.915Z,16.55
2018-07-01T04:09:50.893Z,16.55
2018-07-01T04:12:16.853Z,16.60
2018-07-01T04:14:42.805Z,16.68
2018-07-01T04:17:08.801Z,16.31
2018-07-01T04:19:34.748Z,16.31
2018-07-01T04:22:00.720Z,16.30
2018-07-01T04:24:26.668Z,16.69
2018-07-01T04:26:52.609Z,16.84
2018-07-01T04:29:18.582Z,16.59
2018-07-01T04:31:44.599Z,16.57
2018-07-01T04:34:10.562Z,16.89
2018-07-01T04:36:36.506Z,16.52
2018-07-01T04:39:02.483Z,17.15
2018-07-01T04:41:28.525Z,17.69
2018-07-01T04:43:54.479Z,17.43
2018-07-01T04:46:20.415Z,17.92
2018-07-01T04:48:46.356Z,18.27
2018-07-01T04:51:12.312Z,18.49
2018-07-01T04:53:38.271Z,18.89
2018-07-01T04:56:04.211Z,19.21
2018-07-01T04:58:30.177Z,19.08
2018-07-01T05:00:56.139Z,19.40
2018-07-01T05:03:22.131Z,19.44
2018-07-01T05:05:48.080Z,19.63
2018-07-01T05:08:14.040Z,19.73
2018-07-01T05:10:39.977Z,19.53
2018-07-01T05:13:05.945Z,19.62
2018-07-01T05:15:31.950Z,19.93
2018-07-01T05:17:57.900Z,19.49
2018-07-01T05:20:23.855Z,19.40
2018-07-01T05:22:49.823Z,19.12
2018-07-01T05:25:15.767Z,19.66
2018-07-01T05:27:41.725Z,19.57
2018-07-01T05:30:07.643Z,19.78
2018-07-01T05:32:33.576Z,20.36
2018-07-01T05:34:59.556Z,20.47
2018-07-01T05:37:25.503Z,20.59
2018-07-01T05:39:51.461Z,20.43
2018-07-01T05:42:17.414Z,20.44
2018-07-01T05:44:43.371Z,20.61
2018-07-01T05:47:09.334Z,20.98
2018-07-01T05:49:35.280Z,20.79
2018-07-01T05:52:02.250Z,21.31
2018-07-01T05:54:28.211Z,21.68
2018-07-01T05:56:54.146Z,21.60
2018-07-01T05:59:20.114Z,21.10
2018-07-01T06:01:46.092Z,20.88
2018-07-01T06:04:12.069Z,21.22
2018-07-01T06:06:38.010Z,21.24
2018-07-01T06:09:03.975Z,21.22
2018-07-01T06:11:29.921Z,21.45
2018-07-01T06:13:55.893Z,21.60
2018-07-01T06:16:21.839Z,21.35
2018-07-01T06:18:47.802Z,22.04
2018-07-01T06:21:15.760Z,22.09
2018-07-01T06:23:41.722Z,22.08
2018-07-01T06:26:07.687Z,22.29
2018-07-01T06:28:33.640Z,22.77
2018-07-01T06:30:59.596Z,23.23
2018-07-01T06:33:25.560Z,23.48
2018-07-01T06:35:51.527Z,23.29
2018-07-01T06:38:17.469Z,23.55
2018-07-01T06:40:43.423Z,23.42
2018-07-01T06:43:09.363Z,23.87
2018-07-01T06:45:35.297Z,24.00
2018-07-01T06:48:01.262Z,23.99
2018-07-01T06:50:27.212Z,24.49
2018-07-01T06:52:53.161Z,24.29
2018-07-01T06:55:19.175Z,24.22
2018-07-01T06:57:45.125Z,24.72
2018-07-01T07:00:11.085Z,24.89
2018-07-01T07:02:37.036Z,24.93
2018-07-01T07:05:03.099Z,25.11
2018-07-01T07:07:29.036Z,24.73
2018-07-01T07:09:55.005Z,25.21
2018-07-01T07:12:20.953Z,25.27
2018-07-01T07:14:46.916Z,25.23
2018-07-01T07:17:12.852Z,24.68
2018-07-01T07:19:38.792Z,24.91
2018-07-01T07:22:04.741Z,24.26
2018-07-01T07:24:30.751Z,24.78
2018-07-01T07:26:56.657Z,25.20
2018-07-01T07:29:22.606Z,25.18
2018-07-01T07:31:48.594Z,25.18
2018-07-01T07:34:14.581Z,25.01
2018-07-01T07:36:40.544Z,24.97
2018-07-01T07:39:06.510Z,24.64
2018-07-01T07:41:32.465Z,24.83
2018-07-01T07:43:58.432Z,24.63
2018-07-01T07:46:24.443Z,23.87
2018-07-01T07:48:50.444Z,24.35
2018-07-01T07:51:16.399Z,23.92
2018-07-01T07:53:42.374Z,24.14
2018-07-01T07:56:08.320Z,23.62
2018-07-01T07:58:34.284Z,24.22
2018-07-01T08:01:00.260Z,24.43
2018-07-01T08:03:26.219Z,24.31
2018-07-01T08:05:52.185Z,24.20
2018-07-01T08:08:18.112Z,24.24
2018-07-01T08:10:44.086Z,24.33
2018-07-01T08:13:10.155Z,24.28
2018-07-01T08:15:36.076Z,24.35
2018-07-01T08:18:02.049Z,23.67
2018-07-01T08:20:28.019Z,23.39
2018-07-01T08:22:53.973Z,23.12
2018-07-01T08:25:20.001Z,23.28
2018-07-01T08:27:45.954Z,23.67
2018-07-01T08:30:11.939Z,23.79
2018-07-01T08:32:37.917Z,23.81
2018-07-01T08:35:03.869Z,23.55
2018-07-01T08:37:29.798Z,23.12
2018-07-01T08:39:55.768Z,23.10
2018-07-01T08:42:21.720Z,23.40
2018-07-01T08:44:47.668Z,23.58
2018-07-01T08:47:13.603Z,23.38
2018-07-01T08:49:39.534Z,23.36
2018-07-01T08:52:05.478Z,23.34
2018-07-01T08:54:31.443Z,23.00
2018-07-01T08:56:57.433Z,22.90
2018-07-01T08:59:23.440Z,22.75
2018-07-01T09:01:49.384Z,22.55
2018-07-01T09:04:15.311Z,22.22
2018-07-01T09:06:41.257Z,22.28
2018-07-01T09:09:07.216Z,22.49
2018-07-01T09:11:33.184Z,22.28
2018-07-01T09:13:59.144Z,22.21
2018-07-01T09:16:25.128Z,22.12
2018-07-01T09:18:51.073Z,22.00
2018-07-01T09:21:17.044Z,21.95
2018-07-01T09:23:42.992Z,22.12
2018-07-01T09:26:09.006Z,22.15
2018-07-01T09:28:34.960Z,21.89
2018-07-01T09:31:00.905Z,21.90
2018-07-01T09:33:26.841Z,21.95
2018-07-01T09:35:52.813Z,21.85
2018-07-01T09:38:18.765Z,22.08
2018-07-01T09:40:44.739Z,22.33
2018-07-01T09:43:10.706Z,22.28
2018-07-01T09:45:36.877Z,22.21
2018-07-01T09:48:02.824Z,21.94
2018-07-01T09:50:28.907Z,22.16
2018-07-01T09:52:54.737Z,21.77
2018-07-01T09:55:20.793Z,21.74
2018-07-01T09:57:46.747Z,21.75
2018-07-01T10:00:12.681Z,21.42
2018-07-01T10:02:38.631Z,21.41
2018-07-01T10:05:04.653Z,21.73
2018-07-01T10:07:30.658Z,21.95
2018-07-01T10:09:56.705Z,21.63
2018-07-01T10:12:22.655Z,21.72
2018-07-01T10:14:48.674Z,21.71
2018-07-01T10:17:14.645Z,21.88
2018-07-01T10:19:40.641Z,21.83
2018-07-01T10:22:06.603Z,21.95
2018-07-01T10:24:32.694Z,21.91
2018-07-01T10:26:58.663Z,21.88
2018-07-01T10:29:24.668Z,21.73
2018-07-01T10:31:50.621Z,21.90
2018-07-01T10:34:16.595Z,21.96
2018-07-01T10:36:42.579Z,21.99
2018-07-01T10:39:08.553Z,22.10
2018-07-01T10:41:34.519Z,22.13
2018-07-01T10:44:00.509Z,22.00
2018-07-01T10:46:26.475Z,21.94
2018-07-01T10:48:52.517Z,21.96
2018-07-01T10:51:18.518Z,21.93
2018-07-01T10:53:44.550Z,21.96
2018-07-01T10:56:10.518Z,21.83
2018-07-01T10:58:36.498Z,21.95
2018-07-01T11:01:02.444Z,22.04
2018-07-01T11:03:28.447Z,22.12
2018-07-01T11:05:54.453Z,22.00
2018-07-01T11:08:20.431Z,21.91
2018-07-01T11:10:46.547Z,22.01
2018-07-01T11:13:12.510Z,22.04
2018-07-01T11:15:38.516Z,21.81
2018-07-01T11:18:04.488Z,22.07
2018-07-01T11:20:30.555Z,21.95
2018-07-01T11:22:56.550Z,21.92
2018-07-01T11:25:22.821Z,21.88
2018-07-01T11:27:48.777Z,21.62
2018-07-01T11:30:14.727Z,21.80
2018-07-01T11:32:40.795Z,21.86
2018-07-01T11:35:06.750Z,21.67
2018-07-01T11:37:32.718Z,21.78
2018-07-01T11:39:58.658Z,21.55
2018-07-01T11:42:24.599Z,21.39
2018-07-01T11:44:50.593Z,21.45
2018-07-01T11:47:16.597Z,21.67
2018-07-01T11:49:42.524Z,21.42
2018-07-01T11:52:08.507Z,21.22
2018-07-01T11:54:34.489Z,21.56
2018-07-01T11:57:00.464Z,21.68
2018-07-01T11:59:26.478Z,21.85
2018-07-01T12:01:52.515Z,21.73
2018-07-01T12:04:18.433Z,21.73
2018-07-01T12:06:44.406Z,21.85
2018-07-01T12:09:10.382Z,22.02
2018-07-01T12:11:36.342Z,21.95
2018-07-01T12:14:02.289Z,21.97
2018-07-01T12:16:28.249Z,22.04
2018-07-01T12:18:54.385Z,21.86
2018-07-01T12:21:20.340Z,21.98
2018-07-01T12:23:46.301Z,21.94
2018-07-01T12:26:12.256Z,21.88
2018-07-01T12:28:38.230Z,21.76
2018-07-01T12:31:04.230Z,21.48
2018-07-01T12:33:30.238Z,21.51
2018-07-01T12:35:56.171Z,21.75
2018-07-01T12:38:22.141Z,21.90
2018-07-01T12:40:48.099Z,21.99
2018-07-01T12:43:14.049Z,21.68
2018-07-01T12:45:39.991Z,21.65
2018-07-01T12:48:05.977Z,21.81
2018-07-01T12:50:31.948Z,21.81
2018-07-01T12:52:57.924Z,21.47
2018-07-01T12:55:23.916Z,21.65
2018-07-01T12:57:49.853Z,21.61
2018-07-01T13:00:15.825Z,21.85
2018-07-01T13:02:41.841Z,22.04
2018-07-01T13:05:07.780Z,21.67
2018-07-01T13:07:33.783Z,21.48
2018-07-01T13:09:59.719Z,21.62
2018-07-01T13:12:25.703Z,21.80
2018-07-01T13:14:51.649Z,21.61
2018-07-01T13:17:17.632Z,21.67
2018-07-01T13:19:43.648Z,21.90
2018-07-01T13:22:09.600Z,22.09
2018-07-01T13:24:35.556Z,22.08
2018-07-01T13:27:01.613Z,21.93
2018-07-01T13:29:27.600Z,21.86
2018-07-01T13:31:53.576Z,21.89
2018-07-01T13:34:19.512Z,22.04
2018-07-01T13:36:45.445Z,21.97
2018-07-01T13:39:11.420Z,21.92
2018-07-01T13:41:37.387Z,21.85
2018-07-01T13:44:03.338Z,21.97
2018-07-01T13:46:29.284Z,22.13
2018-07-01T13:48:55.228Z,22.12
2018-07-01T13:51:21.203Z,22.17
2018-07-01T13:53:47.190Z,22.06
2018-07-01T13:56:13.148Z,21.89
2018-07-01T13:58:39.136Z,22.04
2018-07-01T14:01:05.207Z,22.12
2018-07-01T14:03:31.151Z,22.09
2018-07-01T14:05:57.158Z,22.15
2018-07-01T14:08:23.150Z,22.23
2018-07-01T14:10:49.110Z,21.94
2018-07-01T14:13:15.061Z,21.92
2018-07-01T14:15:41.031Z,21.99
2018-07-01T14:18:06.995Z,21.82
2018-07-01T14:20:32.942Z,21.78
2018-07-01T14:22:58.907Z,21.86
2018-07-01T14:25:24.883Z,22.00
2018-07-01T14:27:50.827Z,22.11
2018-07-01T14:30:16.799Z,22.21
2018-07-01T14:32:42.785Z,22.22
2018-07-01T14:35:08.750Z,22.19
2018-07-01T14:37:34.754Z,22.05
2018-07-01T14:40:01.016Z,22.01
2018-07-01T14:42:27.071Z,22.02
2018-07-01T14:44:53.090Z,21.83
2018-07-01T14:47:19.118Z,21.85
2018-07-01T14:49:45.126Z,21.89
2018-07-01T14:52:11.206Z,22.01
2018-07-01T14:54:37.262Z,21.76
2018-07-01T14:57:03.223Z,21.86
2018-07-01T14:59:29.213Z,21.92
2018-07-01T15:01:55.172Z,21.94
2018-07-01T15:04:21.123Z,21.78
2018-07-01T15:06:47.107Z,21.89
2018-07-01T15:09:13.061Z,21.88
2018-07-01T15:11:39.025Z,21.81
2018-07-01T15:14:05.087Z,21.96
2018-07-01T15:16:31.085Z,22.07
2018-07-01T15:18:57.068Z,22.19
2018-07-01T15:21:23.120Z,22.22
2018-07-01T15:23:49.074Z,22.21
2018-07-01T15:26:15.105Z,22.23
2018-07-01T15:28:41.091Z,22.07
2018-07-01T15:31:07.062Z,21.95
2018-07-01T15:33:33.092Z,22.06
2018-07-01T15:35:59.057Z,21.91
2018-07-01T15:38:25.127Z,21.97
2018-07-01T15:40:51.105Z,21.83
2018-07-01T15:43:17.074Z,21.90
2018-07-01T15:45:43.046Z,21.73
2018-07-01T15:48:09.022Z,21.63
2018-07-01T15:50:35.038Z,21.79
2018-07-01T15:53:00.984Z,21.72
2018-07-01T15:55:26.992Z,21.82
2018-07-01T15:57:52.975Z,21.82
2018-07-01T16:00:18.957Z,21.87
2018-07-01T16:02:45.009Z,22.00
2018-07-01T16:05:10.993Z,22.09
2018-07-01T16:07:36.955Z,22.10
2018-07-01T16:10:02.966Z,21.79
2018-07-01T16:12:28.938Z,21.86
2018-07-01T16:14:54.956Z,21.82
2018-07-01T16:17:21.980Z,21.83
2018-07-01T16:19:47.992Z,21.86
2018-07-01T16:22:13.925Z,21.74
2018-07-01T16:24:39.882Z,21.65
2018-07-01T16:27:05.843Z,21.61
2018-07-01T16:29:31.808Z,21.63
2018-07-01T16:31:57.801Z,21.72
2018-07-01T16:34:23.844Z,21.77
2018-07-01T16:36:49.838Z,21.76
2018-07-01T16:39:15.880Z,21.67
2018-07-01T16:41:41.838Z,21.74
2018-07-01T16:44:07.982Z,21.66
2018-07-01T16:46:34.000Z,21.65
2018-07-01T16:48:59.986Z,21.57
2018-07-01T16:51:26.105Z,21.64
2018-07-01T16:53:52.101Z,21.84
2018-07-01T16:56:18.048Z,21.85
2018-07-01T16:58:43.997Z,21.95
2018-07-01T17:01:09.972Z,21.97
2018-07-01T17:03:35.961Z,21.95
2018-07-01T17:06:02.131Z,21.88
2018-07-01T17:08:28.118Z,21.72
2018-07-01T17:10:54.045Z,21.68
2018-07-01T17:13:20.017Z,21.79
2018-07-01T17:15:45.992Z,21.90
2018-07-01T17:18:12.040Z,21.98
2018-07-01T17:20:38.003Z,22.05
2018-07-01T17:23:03.953Z,21.92
2018-07-01T17:25:29.962Z,21.80
2018-07-01T17:27:55.977Z,21.95
2018-07-01T17:30:21.928Z,21.92
2018-07-01T17:32:47.894Z,21.71
2018-07-01T17:35:13.947Z,21.83
2018-07-01T17:37:39.939Z,21.87
2018-07-01T17:40:05.910Z,21.75
2018-07-01T17:42:31.899Z,21.82
2018-07-01T17:44:57.956Z,21.73
2018-07-01T17:47:23.926Z,21.80
2018-07-01T17:49:49.917Z,21.72
2018-07-01T17:52:15.918Z,21.71
2018-07-01T17:54:42.044Z,21.49
2018-07-01T17:57:08.056Z,21.52
2018-07-01T17:59:34.068Z,21.53
2018-07-01T18:02:00.035Z,21.39
2018-07-01T18:04:26.030Z,21.39
2018-07-01T18:06:52.091Z,21.50
2018-07-01T18:09:18.098Z,21.58
2018-07-01T18:11:44.096Z,21.45
2018-07-01T18:14:10.148Z,21.65
2018-07-01T18:16:36.150Z,21.73
2018-07-01T18:19:02.105Z,21.74
2018-07-01T18:21:48.146Z,21.80
2018-07-01T18:24:19.504Z,21.76
2018-07-01T18:26:20.260Z,21.71
2018-07-01T18:28:55.763Z,21.81
2018-07-01T18:31:12.322Z,21.77
2018-07-01T18:33:38.351Z,21.82
2018-07-01T18:36:04.356Z,21.84
2018-07-01T18:38:30.332Z,21.80
2018-07-01T18:40:56.420Z,21.85
2018-07-01T18:43:22.521Z,21.83
2018-07-01T18:45:48.563Z,21.75
2018-07-01T18:48:14.602Z,21.61
2018-07-01T18:50:40.609Z,21.55
2018-07-01T18:53:06.582Z,21.52
2018-07-01T18:55:32.613Z,21.56
2018-07-01T18:57:58.652Z,21.52
2018-07-01T19:00:24.622Z,21.55
2018-07-01T19:02:50.631Z,21.53
2018-07-01T19:05:16.643Z,21.49
2018-07-01T19:07:43.668Z,21.44
2018-07-01T19:10:09.682Z,21.43
2018-07-01T19:12:35.735Z,21.37
2018-07-01T19:15:01.872Z,21.36
2018-07-01T19:17:27.854Z,21.33
2018-07-01T19:19:53.958Z,21.33
2018-07-01T19:22:19.955Z,21.34
2018-07-01T19:24:46.034Z,21.31
2018-07-01T19:27:13.102Z,21.31
2018-07-01T19:29:39.092Z,21.43
2018-07-01T19:32:05.145Z,21.47
2018-07-01T19:34:31.293Z,21.40
2018-07-01T19:36:57.407Z,21.36
2018-07-01T19:39:23.454Z,21.33
2018-07-01T19:41:49.431Z,21.38
2018-07-01T19:44:15.417Z,21.31
2018-07-01T19:46:41.609Z,21.34
2018-07-01T19:49:07.658Z,21.10
2018-07-01T19:51:33.654Z,20.96
2018-07-01T19:53:59.640Z,20.98
2018-07-01T19:56:25.657Z,20.83
2018-07-01T19:58:51.631Z,20.78
2018-07-01T20:01:17.612Z,20.77
2018-07-01T20:03:43.626Z,20.66
2018-07-01T20:06:09.634Z,20.76
2018-07-01T20:08:35.673Z,20.60
2018-07-01T20:11:01.664Z,20.54
2018-07-01T20:13:27.721Z,20.54
2018-07-01T20:15:53.716Z,20.51
2018-07-01T20:18:19.750Z,20.48
2018-07-01T20:20:45.758Z,20.36
2018-07-01T20:23:11.727Z,20.22
2018-07-01T20:25:37.832Z,20.25
2018-07-01T20:28:03.758Z,20.32
2018-07-01T20:30:29.742Z,20.18
2018-07-01T20:32:56.094Z,19.98
2018-07-01T20:35:22.127Z,19.87
2018-07-01T20:37:48.177Z,19.89
2018-07-01T20:40:14.209Z,19.83
2018-07-01T20:42:40.212Z,20.00
2018-07-01T20:45:06.310Z,20.01
2018-07-01T20:47:32.220Z,20.12
2018-07-01T20:49:58.171Z,19.92
2018-07-01T20:52:24.135Z,19.71
2018-07-01T20:54:50.176Z,19.75
2018-07-01T20:57:16.178Z,19.75
2018-07-01T20:59:42.190Z,19.93
2018-07-01T21:02:08.209Z,19.66
2018-07-01T21:04:34.220Z,19.71
2018-07-01T21:07:00.203Z,19.59
2018-07-01T21:09:28.371Z,19.67
2018-07-01T21:11:54.400Z,19.52
2018-07-01T21:14:20.386Z,19.51
2018-07-01T21:16:46.400Z,19.42
2018-07-01T21:19:12.419Z,19.33
2018-07-01T21:21:38.413Z,19.15
2018-07-01T21:24:04.431Z,19.12
2018-07-01T21:26:30.381Z,19.10
2018-07-01T21:28:56.372Z,19.01
2018-07-01T21:31:22.368Z,19.14
2018-07-01T21:33:48.386Z,19.33
2018-07-01T21:36:14.398Z,19.24
2018-07-01T21:38:40.405Z,19.06
2018-07-01T21:41:06.389Z,18.92
2018-07-01T21:43:32.480Z,19.13
2018-07-01T21:45:58.451Z,19.31
2018-07-01T21:48:24.419Z,19.37
2018-07-01T21:50:50.443Z,19.35
2018-07-01T21:53:16.445Z,19.18
2018-07-01T21:55:42.429Z,19.26
2018-07-01T21:58:08.407Z,19.11
2018-07-01T22:00:34.405Z,19.01
2018-07-01T22:03:00.411Z,18.84
2018-07-01T22:05:26.420Z,18.89
2018-07-01T22:07:52.395Z,18.69
2018-07-01T22:10:18.422Z,18.63
2018-07-01T22:12:44.410Z,18.72
2018-07-01T22:15:10.414Z,18.72
2018-07-01T22:17:36.404Z,18.74
2018-07-01T22:20:02.391Z,18.91
2018-07-01T22:22:28.377Z,18.96
2018-07-01T22:24:54.357Z,18.95
2018-07-01T22:27:20.352Z,18.91
2018-07-01T22:29:46.352Z,18.85
2018-07-01T22:32:12.326Z,18.96
2018-07-01T22:34:38.297Z,18.83
2018-07-01T22:37:04.251Z,18.71
2018-07-01T22:39:30.231Z,18.72
2018-07-01T22:41:56.226Z,18.86
2018-07-01T22:44:22.247Z,18.87
2018-07-01T22:46:48.225Z,18.72
2018-07-01T22:49:14.184Z,18.62
2018-07-01T22:51:40.169Z,18.43
2018-07-01T22:54:06.118Z,18.46
2018-07-01T22:56:32.138Z,18.53
2018-07-01T22:58:58.118Z,18.57
2018-07-01T23:01:24.102Z,18.21
2018-07-01T23:03:50.071Z,18.47
2018-07-01T23:06:16.049Z,18.38
2018-07-01T23:08:42.027Z,18.18
2018-07-01T23:11:08.028Z,18.10
2018-07-01T23:13:34.228Z,18.01
2018-07-01T23:16:00.207Z,18.06
2018-07-01T23:18:26.173Z,18.22
2018-07-01T23:20:52.163Z,18.37
2018-07-01T23:23:18.178Z,18.39
2018-07-01T23:25:44.173Z,18.44
2018-07-01T23:28:10.125Z,18.38
2018-07-01T23:30:36.076Z,18.40
2018-07-01T23:33:02.065Z,18.47
2018-07-01T23:35:28.081Z,18.44
2018-07-01T23:37:54.061Z,18.41
2018-07-01T23:40:20.053Z,18.51
2018-07-01T23:42:46.005Z,18.28
2018-07-01T23:45:11.980Z,18.33
2018-07-01T23:47:37.941Z,18.29
2018-07-01T23:50:03.915Z,18.46
2018-07-01T23:52:29.883Z,18.16
2018-07-01T23:54:55.857Z,17.92
2018-07-01T23:57:21.948Z,18.04
2018-07-01T23:59:47.902Z,17.85
